sensor_id;sensor_type;location;lat;lon;timestamp;pressure;altitude;pressure_sealevel;temperature;humidity
35704;BME280;21820;51.112;13.762;2023-03-19T16:39:23;99359.66;;;17.47;66.64
35704;BME280;21820;51.112;13.762;2023-03-19T16:44:40;99368.63;;;17.65;67.75
35704;BME280;21820;51.112;13.762;2023-03-19T16:47:09;99368.22;;;17.91;67.49
35704;BME280;21820;51.112;13.762;2023-03-19T16:49:35;99369.88;;;18.24;66.56
35704;BME280;21820;51.112;13.762;2023-03-19T16:52:00;99368.56;;;18.61;65.21
35704;BME280;21820;51.112;13.762;2023-03-19T16:54:26;99378.00;;;18.94;63.81
35704;BME280;21820;51.112;13.762;2023-03-19T16:56:51;99371.25;;;19.12;61.26
35704;BME280;21820;51.112;13.762;2023-03-19T16:59:22;99373.75;;;19.23;60.64
35704;BME280;21820;51.112;13.762;2023-03-19T17:01:50;99382.66;;;19.41;60.44
35704;BME280;21820;51.112;13.762;2023-03-19T17:04:16;99378.84;;;19.45;61.02
35704;BME280;21820;51.112;13.762;2023-03-19T17:06:42;99381.31;;;19.47;59.86
35704;BME280;21820;51.112;13.762;2023-03-19T17:09:07;99379.63;;;19.45;60.65
35704;BME280;21820;51.112;13.762;2023-03-19T17:11:37;99383.22;;;19.44;60.65
35704;BME280;21820;51.112;13.762;2023-03-19T17:14:06;99387.75;;;19.52;60.69
35704;BME280;21820;51.112;13.762;2023-03-19T17:16:37;99389.06;;;19.67;60.20
35704;BME280;21820;51.112;13.762;2023-03-19T17:19:05;99378.53;;;19.78;59.63
35704;BME280;21820;51.112;13.762;2023-03-19T17:21:34;99392.31;;;19.99;58.86
35704;BME280;21820;51.112;13.762;2023-03-19T17:24:22;99391.91;;;20.13;58.04
35704;BME280;21820;51.112;13.762;2023-03-19T17:26:49;99388.69;;;20.30;57.45
35704;BME280;21820;51.112;13.762;2023-03-19T17:29:14;99392.94;;;20.41;57.00
35704;BME280;21820;51.112;13.762;2023-03-19T17:31:39;99391.44;;;20.57;57.21
35704;BME280;21820;51.112;13.762;2023-03-19T17:34:10;99387.31;;;20.74;56.81
35704;BME280;21820;51.112;13.762;2023-03-19T17:36:37;99397.88;;;20.92;55.65
35704;BME280;21820;51.112;13.762;2023-03-19T17:39:03;99396.94;;;21.02;55.01
35704;BME280;21820;51.112;13.762;2023-03-19T17:41:29;99398.28;;;21.06;54.78
35704;BME280;21820;51.112;13.762;2023-03-19T17:43:56;99403.50;;;21.06;55.34
35704;BME280;21820;51.112;13.762;2023-03-19T17:46:23;99383.47;;;20.97;55.30
35704;BME280;21820;51.112;13.762;2023-03-19T17:48:50;99402.16;;;21.02;55.46
35704;BME280;21820;51.112;13.762;2023-03-19T17:51:17;99397.72;;;20.93;55.56
35704;BME280;21820;51.112;13.762;2023-03-19T17:53:45;99405.03;;;20.80;56.09
35704;BME280;21820;51.112;13.762;2023-03-19T17:56:17;99401.59;;;20.70;55.57
35704;BME280;21820;51.112;13.762;2023-03-19T17:58:42;99403.81;;;20.65;56.45
35704;BME280;21820;51.112;13.762;2023-03-19T18:01:23;99407.25;;;20.56;56.47
35704;BME280;21820;51.112;13.762;2023-03-19T18:03:50;99403.13;;;20.53;56.75
35704;BME280;21820;51.112;13.762;2023-03-19T18:06:19;99397.19;;;20.42;57.22
35704;BME280;21820;51.112;13.762;2023-03-19T18:08:45;99406.81;;;20.32;57.07
35704;BME280;21820;51.112;13.762;2023-03-19T18:11:11;99398.41;;;20.28;57.85
35704;BME280;21820;51.112;13.762;2023-03-19T18:13:37;99389.16;;;20.05;58.12
35704;BME280;21820;51.112;13.762;2023-03-19T18:16:03;99402.06;;;20.07;57.91
35704;BME280;21820;51.112;13.762;2023-03-19T18:18:30;99412.78;;;20.04;58.79
35704;BME280;21820;51.112;13.762;2023-03-19T18:20:56;99410.72;;;19.98;58.47
35704;BME280;21820;51.112;13.762;2023-03-19T18:23:21;99406.44;;;19.97;59.02
35704;BME280;21820;51.112;13.762;2023-03-19T18:25:48;99400.63;;;19.84;59.22
35704;BME280;21820;51.112;13.762;2023-03-19T18:28:15;99409.44;;;19.92;59.44
35704;BME280;21820;51.112;13.762;2023-03-19T18:30:42;99410.69;;;19.88;59.50
35704;BME280;21820;51.112;13.762;2023-03-19T18:33:19;99414.09;;;19.89;59.24
35704;BME280;21820;51.112;13.762;2023-03-19T18:35:46;99416.88;;;19.97;59.62
35704;BME280;21820;51.112;13.762;2023-03-19T18:38:14;99410.59;;;20.09;58.67
35704;BME280;21820;51.112;13.762;2023-03-19T18:40:40;99419.44;;;20.27;58.44
35704;BME280;21820;51.112;13.762;2023-03-19T18:43:08;99408.19;;;20.36;57.63
35704;BME280;21820;51.112;13.762;2023-03-19T18:45:34;99417.56;;;20.67;57.40
35704;BME280;21820;51.112;13.762;2023-03-19T18:47:59;99401.88;;;20.67;56.99
35704;BME280;21820;51.112;13.762;2023-03-19T18:50:29;99406.53;;;20.83;56.34
35704;BME280;21820;51.112;13.762;2023-03-19T18:52:57;99426.19;;;20.96;56.78
35704;BME280;21820;51.112;13.762;2023-03-19T18:55:26;99408.47;;;20.90;56.08
35704;BME280;21820;51.112;13.762;2023-03-19T18:57:56;99427.03;;;20.97;56.15
35704;BME280;21820;51.112;13.762;2023-03-19T19:00:25;99422.22;;;20.92;56.13
35704;BME280;21820;51.112;13.762;2023-03-19T19:02:52;99408.63;;;20.79;56.49
35704;BME280;21820;51.112;13.762;2023-03-19T19:05:23;99424.81;;;20.83;57.16
35704;BME280;21820;51.112;13.762;2023-03-19T19:07:55;99424.69;;;20.74;57.15
35704;BME280;21820;51.112;13.762;2023-03-19T19:10:22;99421.94;;;20.66;57.42
35704;BME280;21820;51.112;13.762;2023-03-19T19:12:49;99422.94;;;20.56;57.20
35704;BME280;21820;51.112;13.762;2023-03-19T19:15:26;99433.19;;;20.48;57.54
35704;BME280;21820;51.112;13.762;2023-03-19T19:17:54;99420.69;;;20.42;57.92
35704;BME280;21820;51.112;13.762;2023-03-19T19:20:21;99427.16;;;20.38;58.41
35704;BME280;21820;51.112;13.762;2023-03-19T19:22:48;99438.13;;;20.32;58.53
35704;BME280;21820;51.112;13.762;2023-03-19T19:25:23;99430.03;;;20.25;58.95
35704;BME280;21820;51.112;13.762;2023-03-19T19:27:59;99442.78;;;20.19;58.64
35704;BME280;21820;51.112;13.762;2023-03-19T19:30:26;99441.63;;;20.12;59.29
35704;BME280;21820;51.112;13.762;2023-03-19T19:32:52;99437.53;;;20.09;59.24
35704;BME280;21820;51.112;13.762;2023-03-19T19:35:20;99440.94;;;20.10;59.72
35704;BME280;21820;51.112;13.762;2023-03-19T19:37:46;99441.41;;;20.15;58.96
35704;BME280;21820;51.112;13.762;2023-03-19T19:40:15;99450.63;;;20.28;58.66
35704;BME280;21820;51.112;13.762;2023-03-19T19:42:42;99446.81;;;20.42;58.36
35704;BME280;21820;51.112;13.762;2023-03-19T19:45:25;99444.75;;;20.64;57.97
35704;BME280;21820;51.112;13.762;2023-03-19T19:47:52;99446.13;;;20.78;57.39
35704;BME280;21820;51.112;13.762;2023-03-19T19:50:18;99449.59;;;20.98;57.40
35704;BME280;21820;51.112;13.762;2023-03-19T19:52:44;99445.03;;;21.09;56.65
35704;BME280;21820;51.112;13.762;2023-03-19T19:55:09;99442.84;;;21.14;56.52
35704;BME280;21820;51.112;13.762;2023-03-19T19:57:36;99450.69;;;21.14;56.70
35704;BME280;21820;51.112;13.762;2023-03-19T20:00:05;99455.22;;;21.12;56.48
35704;BME280;21820;51.112;13.762;2023-03-19T20:02:31;99452.22;;;21.07;56.67
35704;BME280;21820;51.112;13.762;2023-03-19T20:04:57;99443.41;;;20.99;56.54
35704;BME280;21820;51.112;13.762;2023-03-19T20:07:22;99456.75;;;20.96;57.02
35704;BME280;21820;51.112;13.762;2023-03-19T20:09:48;99448.75;;;20.88;56.87
35704;BME280;21820;51.112;13.762;2023-03-19T20:12:18;99462.50;;;20.80;56.93
35704;BME280;21820;51.112;13.762;2023-03-19T20:14:44;99455.47;;;20.71;57.06
35704;BME280;21820;51.112;13.762;2023-03-19T20:17:18;99457.00;;;20.64;57.88
35704;BME280;21820;51.112;13.762;2023-03-19T20:19:45;99449.56;;;20.59;57.76
35704;BME280;21820;51.112;13.762;2023-03-19T20:22:11;99457.25;;;20.51;58.07
35704;BME280;21820;51.112;13.762;2023-03-19T20:24:37;99459.59;;;20.45;58.00
35704;BME280;21820;51.112;13.762;2023-03-19T20:27:06;99455.19;;;20.36;58.76
35704;BME280;21820;51.112;13.762;2023-03-19T20:29:35;99463.41;;;20.31;58.92
35704;BME280;21820;51.112;13.762;2023-03-19T20:32:03;99464.53;;;20.29;59.04
35704;BME280;21820;51.112;13.762;2023-03-19T20:34:29;99463.13;;;20.25;59.32
35704;BME280;21820;51.112;13.762;2023-03-19T20:36:54;99461.75;;;20.21;59.39
35704;BME280;21820;51.112;13.762;2023-03-19T20:39:20;99467.53;;;20.24;59.56
35704;BME280;21820;51.112;13.762;2023-03-19T20:41:45;99462.03;;;20.27;59.01
35704;BME280;21820;51.112;13.762;2023-03-19T20:44:19;99459.44;;;20.27;58.69
35704;BME280;21820;51.112;13.762;2023-03-19T20:46:46;99469.19;;;20.25;59.13
35704;BME280;21820;51.112;13.762;2023-03-19T20:49:13;99448.78;;;20.10;59.54
35704;BME280;21820;51.112;13.762;2023-03-19T20:51:38;99462.03;;;20.18;59.18
35704;BME280;21820;51.112;13.762;2023-03-19T20:54:04;99460.38;;;20.17;59.56
35704;BME280;21820;51.112;13.762;2023-03-19T20:56:30;99470.66;;;20.18;59.60
35704;BME280;21820;51.112;13.762;2023-03-19T20:58:55;99453.97;;;20.10;59.21
35704;BME280;21820;51.112;13.762;2023-03-19T21:01:21;99456.81;;;20.18;59.84
35704;BME280;21820;51.112;13.762;2023-03-19T21:03:46;99465.81;;;20.14;60.10
35704;BME280;21820;51.112;13.762;2023-03-19T21:06:17;99469.66;;;20.10;59.89
35704;BME280;21820;51.112;13.762;2023-03-19T21:08:46;99466.97;;;20.21;59.30
35704;BME280;21820;51.112;13.762;2023-03-19T21:11:13;99467.50;;;20.15;59.51
35704;BME280;21820;51.112;13.762;2023-03-19T21:13:42;99464.19;;;20.13;60.19
35704;BME280;21820;51.112;13.762;2023-03-19T21:16:14;99462.28;;;20.15;59.92
35704;BME280;21820;51.112;13.762;2023-03-19T21:18:41;99464.19;;;20.13;59.40
35704;BME280;21820;51.112;13.762;2023-03-19T21:21:08;99468.31;;;20.15;60.28
35704;BME280;21820;51.112;13.762;2023-03-19T21:23:36;99464.75;;;20.16;59.87
35704;BME280;21820;51.112;13.762;2023-03-19T21:26:23;99464.44;;;20.10;60.10
35704;BME280;21820;51.112;13.762;2023-03-19T21:28:54;99459.78;;;20.13;60.42
35704;BME280;21820;51.112;13.762;2023-03-19T21:31:23;99452.34;;;20.09;59.83
35704;BME280;21820;51.112;13.762;2023-03-19T21:33:49;99459.22;;;20.10;60.34
35704;BME280;21820;51.112;13.762;2023-03-19T21:36:16;99459.78;;;20.13;60.15
35704;BME280;21820;51.112;13.762;2023-03-19T21:38:41;99451.13;;;20.13;59.50
35704;BME280;21820;51.112;13.762;2023-03-19T21:41:28;99456.22;;;20.14;60.19
35704;BME280;21820;51.112;13.762;2023-03-19T21:44:04;99455.38;;;20.14;60.73
35704;BME280;21820;51.112;13.762;2023-03-19T21:46:30;99453.03;;;20.11;60.41
35704;BME280;21820;51.112;13.762;2023-03-19T21:48:57;99460.19;;;20.09;59.83
35704;BME280;21820;51.112;13.762;2023-03-19T21:51:23;99460.59;;;20.14;59.93
35704;BME280;21820;51.112;13.762;2023-03-19T21:53:49;99462.28;;;20.15;60.14
35704;BME280;21820;51.112;13.762;2023-03-19T21:56:22;99464.19;;;20.13;60.13
35704;BME280;21820;51.112;13.762;2023-03-19T21:58:49;99456.50;;;20.11;59.89
35704;BME280;21820;51.112;13.762;2023-03-19T22:01:21;99459.91;;;20.12;60.43
35704;BME280;21820;51.112;13.762;2023-03-19T22:03:48;99454.81;;;20.10;59.98
35704;BME280;21820;51.112;13.762;2023-03-19T22:06:14;99455.66;;;20.11;59.95
35704;BME280;21820;51.112;13.762;2023-03-19T22:08:41;99456.50;;;20.11;60.17
35704;BME280;21820;51.112;13.762;2023-03-19T22:11:16;99463.94;;;20.16;60.22
35704;BME280;21820;51.112;13.762;2023-03-19T22:13:43;99459.22;;;20.10;60.19
35704;BME280;21820;51.112;13.762;2023-03-19T22:16:17;99458.97;;;20.13;61.01
35704;BME280;21820;51.112;13.762;2023-03-19T22:18:44;99453.75;;;20.13;61.28
35704;BME280;21820;51.112;13.762;2023-03-19T22:21:14;99455.66;;;20.11;61.30
35704;BME280;21820;51.112;13.762;2023-03-19T22:23:40;99461.56;;;20.13;60.90
35704;BME280;21820;51.112;13.762;2023-03-19T22:28:48;99466.56;;;20.16;61.28
35704;BME280;21820;51.112;13.762;2023-03-19T22:31:14;99463.09;;;20.15;61.45
35704;BME280;21820;51.112;13.762;2023-03-19T22:33:39;99471.88;;;20.14;62.33
35704;BME280;21820;51.112;13.762;2023-03-19T22:36:05;99452.75;;;20.04;61.04
35704;BME280;21820;51.112;13.762;2023-03-19T22:38:30;99464.19;;;20.13;60.41
35704;BME280;21820;51.112;13.762;2023-03-19T22:40:56;99452.88;;;20.03;62.19
35704;BME280;21820;51.112;13.762;2023-03-19T22:43:28;99466.94;;;20.11;61.08
35704;BME280;21820;51.112;13.762;2023-03-19T22:45:59;99466.09;;;20.11;63.68
35704;BME280;21820;51.112;13.762;2023-03-19T22:48:26;99455.66;;;20.11;61.30
35704;BME280;21820;51.112;13.762;2023-03-19T22:50:51;99468.97;;;20.08;62.28
35704;BME280;21820;51.112;13.762;2023-03-19T22:53:25;99462.78;;;20.09;62.57
35704;BME280;21820;51.112;13.762;2023-03-19T22:55:51;99468.00;;;20.09;61.00
35704;BME280;21820;51.112;13.762;2023-03-19T22:58:16;99466.38;;;20.08;61.65
35704;BME280;21820;51.112;13.762;2023-03-19T23:00:42;99446.53;;;19.96;61.38
35704;BME280;21820;51.112;13.762;2023-03-19T23:03:13;99457.13;;;20.04;61.39
35704;BME280;21820;51.112;13.762;2023-03-19T23:05:41;99450.94;;;20.05;61.29
35704;BME280;21820;51.112;13.762;2023-03-19T23:08:12;99455.38;;;20.04;61.81
35704;BME280;21820;51.112;13.762;2023-03-19T23:10:39;99453.69;;;20.03;60.76
35704;BME280;21820;51.112;13.762;2023-03-19T23:13:04;99452.88;;;20.03;61.49
35704;BME280;21820;51.112;13.762;2023-03-19T23:15:30;99453.69;;;20.03;61.47
35704;BME280;21820;51.112;13.762;2023-03-19T23:17:57;99455.50;;;20.03;62.39
35704;BME280;21820;51.112;13.762;2023-03-19T23:20:25;99448.75;;;20.00;62.75
35704;BME280;21820;51.112;13.762;2023-03-19T23:22:52;99454.53;;;20.04;61.01
35704;BME280;21820;51.112;13.762;2023-03-19T23:25:23;99446.81;;;19.93;61.64
35704;BME280;21820;51.112;13.762;2023-03-19T23:27:49;99436.66;;;19.90;60.81
35704;BME280;21820;51.112;13.762;2023-03-19T23:30:26;99453.97;;;20.00;63.94
35704;BME280;21820;51.112;13.762;2023-03-19T23:32:54;99455.50;;;20.03;62.67
35704;BME280;21820;51.112;13.762;2023-03-19T23:35:22;99456.44;;;20.02;61.02
35704;BME280;21820;51.112;13.762;2023-03-19T23:37:49;99449.31;;;20.04;62.04
35704;BME280;21820;51.112;13.762;2023-03-19T23:40:16;99453.19;;;20.09;61.58
35704;BME280;21820;51.112;13.762;2023-03-19T23:42:48;99453.47;;;20.06;62.46
35704;BME280;21820;51.112;13.762;2023-03-19T23:47:48;99454.25;;;20.07;62.22
35704;BME280;21820;51.112;13.762;2023-03-19T23:50:14;99458.41;;;20.09;62.84
35704;BME280;21820;51.112;13.762;2023-03-19T23:52:39;99462.38;;;20.13;63.02
35704;BME280;21820;51.112;13.762;2023-03-19T23:55:05;99461.19;;;20.17;62.88
35704;BME280;21820;51.112;13.762;2023-03-19T23:57:31;99460.09;;;20.20;62.30
35704;BME280;21820;51.112;13.762;2023-03-19T23:59:57;99462.03;;;20.18;62.14
